sensor_id;sensor_type;location;lat;lon;timestamp;temperature;humidity
24152;DHT22;12311;50.866;4.332;2023-08-24T00:01:42;21.50;99.90
24152;DHT22;12311;50.866;4.332;2023-08-24T00:04:07;21.40;99.90
24152;DHT22;12311;50.866;4.332;2023-08-24T00:06:34;21.40;99.90
24152;DHT22;12311;50.866;4.332;2023-08-24T00:08:59;21.30;99.90
24152;DHT22;12311;50.866;4.332;2023-08-24T00:11:25;21.40;99.90
24152;DHT22;12311;50.866;4.332;2023-08-24T00:13:51;21.40;99.90
24152;DHT22;12311;50.866;4.332;2023-08-24T00:16:18;21.40;99.90
24152;DHT22;12311;50.866;4.332;2023-08-24T00:18:43;21.40;99.90
24152;DHT22;12311;50.866;4.332;2023-08-24T00:21:10;21.40;99.90
24152;DHT22;12311;50.866;4.332;2023-08-24T00:23:36;21.40;99.90
24152;DHT22;12311;50.866;4.332;2023-08-24T00:26:02;21.40;99.90
24152;DHT22;12311;50.866;4.332;2023-08-24T00:28:27;21.40;99.90
24152;DHT22;12311;50.866;4.332;2023-08-24T00:30:53;21.40;99.90
24152;DHT22;12311;50.866;4.332;2023-08-24T00:33:19;21.40;99.90
24152;DHT22;12311;50.866;4.332;2023-08-24T00:35:45;21.50;99.90
24152;DHT22;12311;50.866;4.332;2023-08-24T00:38:10;21.50;99.90
24152;DHT22;12311;50.866;4.332;2023-08-24T00:40:36;21.50;99.90
24152;DHT22;12311;50.866;4.332;2023-08-24T00:43:04;21.50;99.90
24152;DHT22;12311;50.866;4.332;2023-08-24T00:45:30;21.40;99.90
24152;DHT22;12311;50.866;4.332;2023-08-24T00:47:58;21.40;99.90
24152;DHT22;12311;50.866;4.332;2023-08-24T00:50:24;21.50;99.90
24152;DHT22;12311;50.866;4.332;2023-08-24T00:52:50;21.50;99.90
24152;DHT22;12311;50.866;4.332;2023-08-24T00:55:16;21.60;99.90
24152;DHT22;12311;50.866;4.332;2023-08-24T00:57:43;21.70;99.90
24152;DHT22;12311;50.866;4.332;2023-08-24T01:00:09;21.80;99.90
24152;DHT22;12311;50.866;4.332;2023-08-24T01:02:38;21.80;99.90
24152;DHT22;12311;50.866;4.332;2023-08-24T01:05:04;21.80;99.90
24152;DHT22;12311;50.866;4.332;2023-08-24T01:07:31;21.70;99.90
24152;DHT22;12311;50.866;4.332;2023-08-24T01:09:57;21.80;99.90
24152;DHT22;12311;50.866;4.332;2023-08-24T01:15:25;21.90;99.90
24152;DHT22;12311;50.866;4.332;2023-08-24T01:17:52;21.90;99.90
24152;DHT22;12311;50.866;4.332;2023-08-24T01:20:20;21.90;99.90
24152;DHT22;12311;50.866;4.332;2023-08-24T01:23:13;21.90;99.90
24152;DHT22;12311;50.866;4.332;2023-08-24T01:25:47;21.80;99.90
24152;DHT22;12311;50.866;4.332;2023-08-24T01:28:14;21.90;99.90
24152;DHT22;12311;50.866;4.332;2023-08-24T01:30:43;21.90;99.90
24152;DHT22;12311;50.866;4.332;2023-08-24T01:33:09;21.90;99.90
24152;DHT22;12311;50.866;4.332;2023-08-24T01:35:37;21.80;99.90
24152;DHT22;12311;50.866;4.332;2023-08-24T01:38:03;21.70;99.90
24152;DHT22;12311;50.866;4.332;2023-08-24T01:43:33;21.80;99.90
24152;DHT22;12311;50.866;4.332;2023-08-24T01:46:04;21.60;99.90
24152;DHT22;12311;50.866;4.332;2023-08-24T01:48:30;21.50;99.90
24152;DHT22;12311;50.866;4.332;2023-08-24T01:51:00;21.40;99.90
24152;DHT22;12311;50.866;4.332;2023-08-24T01:53:29;21.40;99.90
24152;DHT22;12311;50.866;4.332;2023-08-24T01:55:55;21.50;99.90
24152;DHT22;12311;50.866;4.332;2023-08-24T01:58:21;21.50;99.90
24152;DHT22;12311;50.866;4.332;2023-08-24T02:00:46;21.50;99.90
24152;DHT22;12311;50.866;4.332;2023-08-24T02:03:12;21.50;99.90
24152;DHT22;12311;50.866;4.332;2023-08-24T02:05:38;21.50;99.90
24152;DHT22;12311;50.866;4.332;2023-08-24T02:08:03;21.50;99.90
24152;DHT22;12311;50.866;4.332;2023-08-24T02:10:29;21.30;99.90
24152;DHT22;12311;50.866;4.332;2023-08-24T02:12:55;20.90;99.90
24152;DHT22;12311;50.866;4.332;2023-08-24T02:15:20;20.70;99.90
24152;DHT22;12311;50.866;4.332;2023-08-24T02:17:46;20.50;99.90
24152;DHT22;12311;50.866;4.332;2023-08-24T02:20:12;20.40;99.90
24152;DHT22;12311;50.866;4.332;2023-08-24T02:22:38;20.20;99.90
24152;DHT22;12311;50.866;4.332;2023-08-24T02:25:09;20.10;99.90
24152;DHT22;12311;50.866;4.332;2023-08-24T02:27:35;20.00;99.90
24152;DHT22;12311;50.866;4.332;2023-08-24T02:30:00;19.90;99.90
24152;DHT22;12311;50.866;4.332;2023-08-24T02:32:26;19.90;99.90
24152;DHT22;12311;50.866;4.332;2023-08-24T02:34:51;19.80;99.90
24152;DHT22;12311;50.866;4.332;2023-08-24T02:37:17;19.80;99.90
24152;DHT22;12311;50.866;4.332;2023-08-24T02:39:43;19.80;99.90
24152;DHT22;12311;50.866;4.332;2023-08-24T02:42:09;19.90;99.90
24152;DHT22;12311;50.866;4.332;2023-08-24T02:44:35;19.90;99.90
24152;DHT22;12311;50.866;4.332;2023-08-24T02:47:00;20.00;99.90
24152;DHT22;12311;50.866;4.332;2023-08-24T02:49:26;20.00;99.90
24152;DHT22;12311;50.866;4.332;2023-08-24T02:51:52;20.10;99.90
24152;DHT22;12311;50.866;4.332;2023-08-24T02:54:17;20.20;99.90
24152;DHT22;12311;50.866;4.332;2023-08-24T02:56:43;20.20;99.90
24152;DHT22;12311;50.866;4.332;2023-08-24T02:59:09;20.30;99.90
24152;DHT22;12311;50.866;4.332;2023-08-24T03:01:34;20.30;99.90
24152;DHT22;12311;50.866;4.332;2023-08-24T03:04:04;20.30;99.90
24152;DHT22;12311;50.866;4.332;2023-08-24T03:06:30;20.30;99.90
24152;DHT22;12311;50.866;4.332;2023-08-24T03:08:56;20.40;99.90
24152;DHT22;12311;50.866;4.332;2023-08-24T03:11:22;20.30;99.90
24152;DHT22;12311;50.866;4.332;2023-08-24T03:13:48;20.30;99.90
24152;DHT22;12311;50.866;4.332;2023-08-24T03:16:13;20.30;99.90
24152;DHT22;12311;50.866;4.332;2023-08-24T03:18:39;20.30;99.90
24152;DHT22;12311;50.866;4.332;2023-08-24T03:21:05;20.20;99.90
24152;DHT22;12311;50.866;4.332;2023-08-24T03:23:31;20.20;99.90
24152;DHT22;12311;50.866;4.332;2023-08-24T03:25:57;20.10;99.90
24152;DHT22;12311;50.866;4.332;2023-08-24T03:28:23;20.20;99.90
24152;DHT22;12311;50.866;4.332;2023-08-24T03:30:51;20.10;99.90
24152;DHT22;12311;50.866;4.332;2023-08-24T03:33:16;20.20;99.90
24152;DHT22;12311;50.866;4.332;2023-08-24T03:35:42;20.10;99.90
24152;DHT22;12311;50.866;4.332;2023-08-24T03:38:08;20.10;99.90
24152;DHT22;12311;50.866;4.332;2023-08-24T03:40:34;20.10;99.90
24152;DHT22;12311;50.866;4.332;2023-08-24T03:43:02;20.10;99.90
24152;DHT22;12311;50.866;4.332;2023-08-24T03:45:28;20.20;99.90
24152;DHT22;12311;50.866;4.332;2023-08-24T03:47:53;20.20;99.90
24152;DHT22;12311;50.866;4.332;2023-08-24T03:50:19;20.10;99.90
24152;DHT22;12311;50.866;4.332;2023-08-24T03:52:45;20.10;99.90
24152;DHT22;12311;50.866;4.332;2023-08-24T03:55:11;20.00;99.90
24152;DHT22;12311;50.866;4.332;2023-08-24T03:57:36;20.00;99.90
24152;DHT22;12311;50.866;4.332;2023-08-24T04:00:04;20.10;99.90
24152;DHT22;12311;50.866;4.332;2023-08-24T04:02:33;20.10;99.90
24152;DHT22;12311;50.866;4.332;2023-08-24T04:04:58;20.00;99.90
24152;DHT22;12311;50.866;4.332;2023-08-24T04:07:24;20.10;99.90
24152;DHT22;12311;50.866;4.332;2023-08-24T04:09:49;20.20;99.90
24152;DHT22;12311;50.866;4.332;2023-08-24T04:12:15;20.10;99.90
24152;DHT22;12311;50.866;4.332;2023-08-24T04:14:41;20.00;99.90
24152;DHT22;12311;50.866;4.332;2023-08-24T04:17:06;20.00;99.90
24152;DHT22;12311;50.866;4.332;2023-08-24T04:19:32;19.90;99.90
24152;DHT22;12311;50.866;4.332;2023-08-24T04:21:58;19.80;99.90
24152;DHT22;12311;50.866;4.332;2023-08-24T04:24:23;19.80;99.90
24152;DHT22;12311;50.866;4.332;2023-08-24T04:26:50;19.80;99.90
24152;DHT22;12311;50.866;4.332;2023-08-24T04:29:17;19.70;99.90
24152;DHT22;12311;50.866;4.332;2023-08-24T04:31:42;19.70;99.90
24152;DHT22;12311;50.866;4.332;2023-08-24T04:34:08;19.80;99.90
24152;DHT22;12311;50.866;4.332;2023-08-24T04:36:34;19.80;99.90
24152;DHT22;12311;50.866;4.332;2023-08-24T04:39:00;19.70;99.90
24152;DHT22;12311;50.866;4.332;2023-08-24T04:41:27;19.70;99.90
24152;DHT22;12311;50.866;4.332;2023-08-24T04:43:53;19.60;99.90
24152;DHT22;12311;50.866;4.332;2023-08-24T04:46:20;19.60;99.90
24152;DHT22;12311;50.866;4.332;2023-08-24T04:48:45;19.60;99.90
24152;DHT22;12311;50.866;4.332;2023-08-24T04:51:11;19.60;99.90
24152;DHT22;12311;50.866;4.332;2023-08-24T04:53:37;19.60;99.90
24152;DHT22;12311;50.866;4.332;2023-08-24T04:56:02;19.60;99.90
24152;DHT22;12311;50.866;4.332;2023-08-24T04:58:28;19.60;99.90
24152;DHT22;12311;50.866;4.332;2023-08-24T05:00:53;19.50;99.90
24152;DHT22;12311;50.866;4.332;2023-08-24T05:03:21;19.60;99.90
24152;DHT22;12311;50.866;4.332;2023-08-24T05:05:47;19.60;99.90
24152;DHT22;12311;50.866;4.332;2023-08-24T05:08:13;19.60;99.90
24152;DHT22;12311;50.866;4.332;2023-08-24T05:10:38;19.60;99.90
24152;DHT22;12311;50.866;4.332;2023-08-24T05:13:04;19.60;99.90
24152;DHT22;12311;50.866;4.332;2023-08-24T05:15:30;19.60;99.90
24152;DHT22;12311;50.866;4.332;2023-08-24T05:17:56;19.70;99.90
24152;DHT22;12311;50.866;4.332;2023-08-24T05:20:25;19.70;99.90
24152;DHT22;12311;50.866;4.332;2023-08-24T05:22:50;19.70;99.90
24152;DHT22;12311;50.866;4.332;2023-08-24T05:25:16;19.80;99.90
24152;DHT22;12311;50.866;4.332;2023-08-24T05:27:43;19.80;99.90
24152;DHT22;12311;50.866;4.332;2023-08-24T05:30:09;19.90;99.90
24152;DHT22;12311;50.866;4.332;2023-08-24T05:32:35;20.00;99.90
24152;DHT22;12311;50.866;4.332;2023-08-24T05:35:05;20.00;99.90
24152;DHT22;12311;50.866;4.332;2023-08-24T05:37:31;20.10;99.90
24152;DHT22;12311;50.866;4.332;2023-08-24T05:39:56;20.30;99.90
24152;DHT22;12311;50.866;4.332;2023-08-24T05:42:22;20.30;99.90
24152;DHT22;12311;50.866;4.332;2023-08-24T05:44:48;20.30;99.90
24152;DHT22;12311;50.866;4.332;2023-08-24T05:47:13;20.40;99.90
24152;DHT22;12311;50.866;4.332;2023-08-24T05:49:39;20.50;99.90
24152;DHT22;12311;50.866;4.332;2023-08-24T05:52:05;20.60;99.90
24152;DHT22;12311;50.866;4.332;2023-08-24T05:54:30;20.70;99.90
24152;DHT22;12311;50.866;4.332;2023-08-24T05:56:56;20.90;99.90
24152;DHT22;12311;50.866;4.332;2023-08-24T05:59:26;20.90;99.90
24152;DHT22;12311;50.866;4.332;2023-08-24T06:01:52;21.10;99.90
24152;DHT22;12311;50.866;4.332;2023-08-24T06:04:17;21.20;99.90
24152;DHT22;12311;50.866;4.332;2023-08-24T06:06:43;21.30;99.90
24152;DHT22;12311;50.866;4.332;2023-08-24T06:09:09;21.40;99.90
24152;DHT22;12311;50.866;4.332;2023-08-24T06:11:35;21.40;99.90
24152;DHT22;12311;50.866;4.332;2023-08-24T06:14:01;21.50;99.90
24152;DHT22;12311;50.866;4.332;2023-08-24T06:16:28;21.60;99.90
24152;DHT22;12311;50.866;4.332;2023-08-24T06:18:54;21.60;99.90
24152;DHT22;12311;50.866;4.332;2023-08-24T06:21:20;21.70;99.90
24152;DHT22;12311;50.866;4.332;2023-08-24T06:23:45;21.70;99.90
24152;DHT22;12311;50.866;4.332;2023-08-24T06:26:13;21.90;99.90
24152;DHT22;12311;50.866;4.332;2023-08-24T06:28:39;22.10;99.90
24152;DHT22;12311;50.866;4.332;2023-08-24T06:31:04;22.40;99.90
24152;DHT22;12311;50.866;4.332;2023-08-24T06:33:34;22.60;99.90
24152;DHT22;12311;50.866;4.332;2023-08-24T06:35:59;22.70;99.90
24152;DHT22;12311;50.866;4.332;2023-08-24T06:38:25;22.80;99.90
24152;DHT22;12311;50.866;4.332;2023-08-24T06:40:51;22.90;99.90
24152;DHT22;12311;50.866;4.332;2023-08-24T06:43:17;22.90;99.90
24152;DHT22;12311;50.866;4.332;2023-08-24T06:45:44;22.90;99.90
24152;DHT22;12311;50.866;4.332;2023-08-24T06:48:10;23.00;99.90
24152;DHT22;12311;50.866;4.332;2023-08-24T06:50:35;23.20;99.90
24152;DHT22;12311;50.866;4.332;2023-08-24T06:53:04;23.30;99.90
24152;DHT22;12311;50.866;4.332;2023-08-24T06:55:31;23.50;99.90
24152;DHT22;12311;50.866;4.332;2023-08-24T06:57:56;23.50;99.90
24152;DHT22;12311;50.866;4.332;2023-08-24T07:00:22;23.50;99.90
24152;DHT22;12311;50.866;4.332;2023-08-24T07:02:49;23.60;99.90
24152;DHT22;12311;50.866;4.332;2023-08-24T07:05:15;23.90;99.90
24152;DHT22;12311;50.866;4.332;2023-08-24T07:07:49;24.10;99.90
24152;DHT22;12311;50.866;4.332;2023-08-24T07:10:15;24.30;99.90
24152;DHT22;12311;50.866;4.332;2023-08-24T07:12:41;24.50;99.90
24152;DHT22;12311;50.866;4.332;2023-08-24T07:15:10;24.70;99.90
24152;DHT22;12311;50.866;4.332;2023-08-24T07:17:35;24.80;99.90
24152;DHT22;12311;50.866;4.332;2023-08-24T07:20:02;25.00;99.90
24152;DHT22;12311;50.866;4.332;2023-08-24T07:22:30;25.10;99.90
24152;DHT22;12311;50.866;4.332;2023-08-24T07:24:56;25.30;99.90
24152;DHT22;12311;50.866;4.332;2023-08-24T07:27:21;25.40;99.90
24152;DHT22;12311;50.866;4.332;2023-08-24T07:29:47;25.50;99.90
24152;DHT22;12311;50.866;4.332;2023-08-24T07:32:13;25.70;99.90
24152;DHT22;12311;50.866;4.332;2023-08-24T07:34:39;25.70;99.90
24152;DHT22;12311;50.866;4.332;2023-08-24T07:37:05;25.80;99.90
24152;DHT22;12311;50.866;4.332;2023-08-24T07:39:32;25.70;99.90
24152;DHT22;12311;50.866;4.332;2023-08-24T07:41:57;25.70;99.90
24152;DHT22;12311;50.866;4.332;2023-08-24T07:44:23;25.80;99.90
24152;DHT22;12311;50.866;4.332;2023-08-24T07:46:48;25.80;99.90
24152;DHT22;12311;50.866;4.332;2023-08-24T07:49:15;25.90;99.90
24152;DHT22;12311;50.866;4.332;2023-08-24T07:51:40;26.10;99.90
24152;DHT22;12311;50.866;4.332;2023-08-24T07:54:08;26.20;99.90
24152;DHT22;12311;50.866;4.332;2023-08-24T07:56:34;26.50;99.90
24152;DHT22;12311;50.866;4.332;2023-08-24T07:59:00;26.50;99.90
24152;DHT22;12311;50.866;4.332;2023-08-24T08:01:25;26.60;99.90
24152;DHT22;12311;50.866;4.332;2023-08-24T08:03:51;26.60;99.90
24152;DHT22;12311;50.866;4.332;2023-08-24T08:06:16;26.70;99.90
24152;DHT22;12311;50.866;4.332;2023-08-24T08:08:42;26.70;99.90
24152;DHT22;12311;50.866;4.332;2023-08-24T08:11:10;26.70;99.90
24152;DHT22;12311;50.866;4.332;2023-08-24T08:13:35;26.60;99.90
24152;DHT22;12311;50.866;4.332;2023-08-24T08:16:05;26.50;99.90
24152;DHT22;12311;50.866;4.332;2023-08-24T08:18:35;26.60;99.90
24152;DHT22;12311;50.866;4.332;2023-08-24T08:21:01;26.60;99.90
24152;DHT22;12311;50.866;4.332;2023-08-24T08:23:33;26.60;99.90
24152;DHT22;12311;50.866;4.332;2023-08-24T08:25:59;26.70;99.90
24152;DHT22;12311;50.866;4.332;2023-08-24T08:28:24;26.70;99.90
24152;DHT22;12311;50.866;4.332;2023-08-24T08:30:50;26.70;99.90
24152;DHT22;12311;50.866;4.332;2023-08-24T08:33:16;26.70;99.90
24152;DHT22;12311;50.866;4.332;2023-08-24T08:35:43;26.70;99.90
24152;DHT22;12311;50.866;4.332;2023-08-24T08:38:09;26.90;99.90
24152;DHT22;12311;50.866;4.332;2023-08-24T08:40:37;27.10;99.90
24152;DHT22;12311;50.866;4.332;2023-08-24T08:43:03;27.20;99.90
24152;DHT22;12311;50.866;4.332;2023-08-24T08:45:29;27.20;99.90
24152;DHT22;12311;50.866;4.332;2023-08-24T08:47:59;27.30;99.90
24152;DHT22;12311;50.866;4.332;2023-08-24T08:50:26;27.50;99.90
24152;DHT22;12311;50.866;4.332;2023-08-24T08:52:52;27.50;99.90
24152;DHT22;12311;50.866;4.332;2023-08-24T08:55:18;27.60;99.90
24152;DHT22;12311;50.866;4.332;2023-08-24T08:57:47;27.50;99.90
24152;DHT22;12311;50.866;4.332;2023-08-24T09:00:17;27.70;99.90
24152;DHT22;12311;50.866;4.332;2023-08-24T09:02:45;27.70;99.90
24152;DHT22;12311;50.866;4.332;2023-08-24T09:05:12;27.60;99.90
24152;DHT22;12311;50.866;4.332;2023-08-24T09:07:41;27.40;99.90
24152;DHT22;12311;50.866;4.332;2023-08-24T09:10:07;27.20;99.90
24152;DHT22;12311;50.866;4.332;2023-08-24T09:12:34;27.10;99.90
24152;DHT22;12311;50.866;4.332;2023-08-24T09:15:03;27.20;99.90
24152;DHT22;12311;50.866;4.332;2023-08-24T09:17:29;27.10;99.90
24152;DHT22;12311;50.866;4.332;2023-08-24T09:19:59;26.70;99.90
24152;DHT22;12311;50.866;4.332;2023-08-24T09:22:25;26.50;99.90
24152;DHT22;12311;50.866;4.332;2023-08-24T09:24:51;26.40;99.90
24152;DHT22;12311;50.866;4.332;2023-08-24T09:27:18;26.40;99.90
24152;DHT22;12311;50.866;4.332;2023-08-24T09:29:52;26.00;99.90
24152;DHT22;12311;50.866;4.332;2023-08-24T09:32:28;25.50;99.90
24152;DHT22;12311;50.866;4.332;2023-08-24T09:34:54;25.20;99.90
24152;DHT22;12311;50.866;4.332;2023-08-24T09:37:20;24.70;99.90
24152;DHT22;12311;50.866;4.332;2023-08-24T09:39:46;24.30;99.90
24152;DHT22;12311;50.866;4.332;2023-08-24T09:42:13;23.50;99.90
24152;DHT22;12311;50.866;4.332;2023-08-24T09:44:44;22.80;99.90
24152;DHT22;12311;50.866;4.332;2023-08-24T09:47:11;22.30;99.90
24152;DHT22;12311;50.866;4.332;2023-08-24T09:49:37;21.90;99.90
24152;DHT22;12311;50.866;4.332;2023-08-24T09:52:03;21.60;99.90
24152;DHT22;12311;50.866;4.332;2023-08-24T09:54:32;21.40;99.90
24152;DHT22;12311;50.866;4.332;2023-08-24T09:57:02;21.30;99.90
24152;DHT22;12311;50.866;4.332;2023-08-24T09:59:31;21.20;99.90
24152;DHT22;12311;50.866;4.332;2023-08-24T10:02:00;21.00;99.90
24152;DHT22;12311;50.866;4.332;2023-08-24T10:04:29;20.90;99.90
24152;DHT22;12311;50.866;4.332;2023-08-24T10:07:11;20.80;99.90
24152;DHT22;12311;50.866;4.332;2023-08-24T10:09:47;20.60;99.90
24152;DHT22;12311;50.866;4.332;2023-08-24T10:12:15;20.50;99.90
24152;DHT22;12311;50.866;4.332;2023-08-24T10:17:15;20.40;99.90
24152;DHT22;12311;50.866;4.332;2023-08-24T10:19:42;20.40;99.90
24152;DHT22;12311;50.866;4.332;2023-08-24T10:22:09;20.30;99.90
24152;DHT22;12311;50.866;4.332;2023-08-24T10:24:35;20.30;99.90
24152;DHT22;12311;50.866;4.332;2023-08-24T10:27:02;20.30;99.90
24152;DHT22;12311;50.866;4.332;2023-08-24T10:29:29;20.30;99.90
24152;DHT22;12311;50.866;4.332;2023-08-24T10:31:56;20.30;99.90
24152;DHT22;12311;50.866;4.332;2023-08-24T10:34:22;20.50;99.90
24152;DHT22;12311;50.866;4.332;2023-08-24T10:36:48;20.60;99.90
24152;DHT22;12311;50.866;4.332;2023-08-24T10:39:14;20.80;99.90
24152;DHT22;12311;50.866;4.332;2023-08-24T10:41:52;20.80;99.90
24152;DHT22;12311;50.866;4.332;2023-08-24T10:44:33;20.80;99.90
24152;DHT22;12311;50.866;4.332;2023-08-24T10:49:32;21.10;99.90
24152;DHT22;12311;50.866;4.332;2023-08-24T10:51:58;21.20;99.90
24152;DHT22;12311;50.866;4.332;2023-08-24T10:54:30;21.40;99.90
24152;DHT22;12311;50.866;4.332;2023-08-24T10:56:56;21.40;99.90
24152;DHT22;12311;50.866;4.332;2023-08-24T10:59:24;21.50;99.90
24152;DHT22;12311;50.866;4.332;2023-08-24T11:04:19;21.70;99.90
24152;DHT22;12311;50.866;4.332;2023-08-24T11:06:58;21.80;99.90
24152;DHT22;12311;50.866;4.332;2023-08-24T11:09:25;22.00;99.90
24152;DHT22;12311;50.866;4.332;2023-08-24T11:12:02;22.00;99.90
24152;DHT22;12311;50.866;4.332;2023-08-24T11:14:29;22.00;99.90
24152;DHT22;12311;50.866;4.332;2023-08-24T11:17:16;22.10;99.90
24152;DHT22;12311;50.866;4.332;2023-08-24T11:19:53;22.10;99.90
24152;DHT22;12311;50.866;4.332;2023-08-24T11:22:20;22.30;99.90
24152;DHT22;12311;50.866;4.332;2023-08-24T11:24:46;22.30;99.90
24152;DHT22;12311;50.866;4.332;2023-08-24T11:27:12;22.30;99.90
24152;DHT22;12311;50.866;4.332;2023-08-24T11:29:38;22.40;99.90
24152;DHT22;12311;50.866;4.332;2023-08-24T11:32:04;22.30;99.90
24152;DHT22;12311;50.866;4.332;2023-08-24T11:34:30;22.40;99.90
24152;DHT22;12311;50.866;4.332;2023-08-24T11:36:56;22.40;99.90
24152;DHT22;12311;50.866;4.332;2023-08-24T11:39:22;22.40;99.90
24152;DHT22;12311;50.866;4.332;2023-08-24T11:42:03;22.20;99.90
24152;DHT22;12311;50.866;4.332;2023-08-24T11:44:30;22.20;99.90
24152;DHT22;12311;50.866;4.332;2023-08-24T11:47:10;22.10;99.90
24152;DHT22;12311;50.866;4.332;2023-08-24T11:49:35;22.00;99.90
24152;DHT22;12311;50.866;4.332;2023-08-24T11:52:01;22.10;99.90
24152;DHT22;12311;50.866;4.332;2023-08-24T11:54:27;22.00;99.90
24152;DHT22;12311;50.866;4.332;2023-08-24T11:56:53;21.90;99.90
24152;DHT22;12311;50.866;4.332;2023-08-24T11:59:19;22.00;99.90
24152;DHT22;12311;50.866;4.332;2023-08-24T12:01:45;22.00;99.90
24152;DHT22;12311;50.866;4.332;2023-08-24T12:04:12;21.90;99.90
24152;DHT22;12311;50.866;4.332;2023-08-24T12:06:38;21.80;99.90
24152;DHT22;12311;50.866;4.332;2023-08-24T12:09:06;21.80;99.90
24152;DHT22;12311;50.866;4.332;2023-08-24T12:11:35;21.80;99.90
24152;DHT22;12311;50.866;4.332;2023-08-24T12:14:01;21.60;99.90
24152;DHT22;12311;50.866;4.332;2023-08-24T12:16:31;21.50;99.90
24152;DHT22;12311;50.866;4.332;2023-08-24T12:18:59;21.40;99.90
24152;DHT22;12311;50.866;4.332;2023-08-24T12:21:26;21.40;99.90
24152;DHT22;12311;50.866;4.332;2023-08-24T12:24:13;21.40;99.90
24152;DHT22;12311;50.866;4.332;2023-08-24T12:26:39;21.30;99.90
24152;DHT22;12311;50.866;4.332;2023-08-24T12:29:07;21.30;99.90
24152;DHT22;12311;50.866;4.332;2023-08-24T12:31:33;21.30;99.90
24152;DHT22;12311;50.866;4.332;2023-08-24T12:34:03;21.20;99.90
24152;DHT22;12311;50.866;4.332;2023-08-24T12:36:34;21.20;99.90
24152;DHT22;12311;50.866;4.332;2023-08-24T12:39:02;21.10;99.90
24152;DHT22;12311;50.866;4.332;2023-08-24T12:41:30;21.10;99.90
24152;DHT22;12311;50.866;4.332;2023-08-24T12:43:55;21.10;99.90
24152;DHT22;12311;50.866;4.332;2023-08-24T12:46:21;21.10;99.90
24152;DHT22;12311;50.866;4.332;2023-08-24T12:48:47;21.10;99.90
24152;DHT22;12311;50.866;4.332;2023-08-24T12:51:12;21.10;99.90
24152;DHT22;12311;50.866;4.332;2023-08-24T12:53:38;21.10;99.90
24152;DHT22;12311;50.866;4.332;2023-08-24T12:56:04;21.10;99.90
24152;DHT22;12311;50.866;4.332;2023-08-24T12:58:30;21.10;99.90
24152;DHT22;12311;50.866;4.332;2023-08-24T13:00:56;21.10;99.90
24152;DHT22;12311;50.866;4.332;2023-08-24T13:03:22;21.00;99.90
24152;DHT22;12311;50.866;4.332;2023-08-24T13:05:47;21.00;99.90
24152;DHT22;12311;50.866;4.332;2023-08-24T13:08:13;21.00;99.90
24152;DHT22;12311;50.866;4.332;2023-08-24T13:10:39;21.00;99.90
24152;DHT22;12311;50.866;4.332;2023-08-24T13:13:05;21.00;99.90
24152;DHT22;12311;50.866;4.332;2023-08-24T13:15:31;21.00;99.90
24152;DHT22;12311;50.866;4.332;2023-08-24T13:17:57;21.00;99.90
24152;DHT22;12311;50.866;4.332;2023-08-24T13:20:23;21.00;99.90
24152;DHT22;12311;50.866;4.332;2023-08-24T13:22:49;21.00;99.90
24152;DHT22;12311;50.866;4.332;2023-08-24T13:25:14;21.10;99.90
24152;DHT22;12311;50.866;4.332;2023-08-24T13:27:40;21.00;99.90
24152;DHT22;12311;50.866;4.332;2023-08-24T13:30:06;21.00;99.90
24152;DHT22;12311;50.866;4.332;2023-08-24T13:32:33;21.00;99.90
24152;DHT22;12311;50.866;4.332;2023-08-24T13:35:00;21.00;99.90
24152;DHT22;12311;50.866;4.332;2023-08-24T13:37:26;21.10;99.90
24152;DHT22;12311;50.866;4.332;2023-08-24T13:39:52;21.10;99.90
24152;DHT22;12311;50.866;4.332;2023-08-24T13:42:17;21.10;99.90
24152;DHT22;12311;50.866;4.332;2023-08-24T13:44:44;21.10;99.90
24152;DHT22;12311;50.866;4.332;2023-08-24T13:47:10;21.20;99.90
24152;DHT22;12311;50.866;4.332;2023-08-24T13:49:36;21.20;99.90
24152;DHT22;12311;50.866;4.332;2023-08-24T13:52:02;21.20;99.90
24152;DHT22;12311;50.866;4.332;2023-08-24T13:54:28;21.20;99.90
24152;DHT22;12311;50.866;4.332;2023-08-24T13:56:53;21.20;99.90
24152;DHT22;12311;50.866;4.332;2023-08-24T13:59:20;21.20;99.90
24152;DHT22;12311;50.866;4.332;2023-08-24T14:01:46;21.30;99.90
24152;DHT22;12311;50.866;4.332;2023-08-24T14:04:12;21.30;99.90
24152;DHT22;12311;50.866;4.332;2023-08-24T14:06:37;21.40;99.90
24152;DHT22;12311;50.866;4.332;2023-08-24T14:09:04;21.40;99.90
24152;DHT22;12311;50.866;4.332;2023-08-24T14:11:30;21.50;99.90
24152;DHT22;12311;50.866;4.332;2023-08-24T14:13:56;21.50;99.90
24152;DHT22;12311;50.866;4.332;2023-08-24T14:16:22;21.50;99.90
24152;DHT22;12311;50.866;4.332;2023-08-24T14:18:48;21.50;99.90
24152;DHT22;12311;50.866;4.332;2023-08-24T14:21:15;21.50;99.90
24152;DHT22;12311;50.866;4.332;2023-08-24T14:23:41;21.60;99.90
24152;DHT22;12311;50.866;4.332;2023-08-24T14:26:07;21.60;99.90
24152;DHT22;12311;50.866;4.332;2023-08-24T14:28:50;21.50;99.90
24152;DHT22;12311;50.866;4.332;2023-08-24T14:31:20;21.70;99.90
24152;DHT22;12311;50.866;4.332;2023-08-24T14:33:46;21.70;99.90
24152;DHT22;12311;50.866;4.332;2023-08-24T14:36:12;21.80;99.90
24152;DHT22;12311;50.866;4.332;2023-08-24T14:38:41;21.80;99.90
24152;DHT22;12311;50.866;4.332;2023-08-24T14:41:11;21.90;99.90
24152;DHT22;12311;50.866;4.332;2023-08-24T14:43:38;22.00;99.90
24152;DHT22;12311;50.866;4.332;2023-08-24T14:46:03;22.10;99.90
24152;DHT22;12311;50.866;4.332;2023-08-24T14:48:30;22.00;99.90
24152;DHT22;12311;50.866;4.332;2023-08-24T14:50:56;21.90;99.90
24152;DHT22;12311;50.866;4.332;2023-08-24T14:53:23;22.00;99.90
24152;DHT22;12311;50.866;4.332;2023-08-24T14:55:48;22.00;99.90
24152;DHT22;12311;50.866;4.332;2023-08-24T14:58:14;22.00;99.90
24152;DHT22;12311;50.866;4.332;2023-08-24T15:00:40;22.10;99.90
24152;DHT22;12311;50.866;4.332;2023-08-24T15:03:06;22.10;99.90
24152;DHT22;12311;50.866;4.332;2023-08-24T15:05:37;22.20;99.90
24152;DHT22;12311;50.866;4.332;2023-08-24T15:08:04;22.30;99.90
24152;DHT22;12311;50.866;4.332;2023-08-24T15:10:30;22.30;99.90
24152;DHT22;12311;50.866;4.332;2023-08-24T15:12:55;22.40;99.90
24152;DHT22;12311;50.866;4.332;2023-08-24T15:15:21;22.50;99.90
24152;DHT22;12311;50.866;4.332;2023-08-24T15:17:47;22.50;99.90
24152;DHT22;12311;50.866;4.332;2023-08-24T15:20:13;22.60;99.90
24152;DHT22;12311;50.866;4.332;2023-08-24T15:22:39;22.80;99.90
24152;DHT22;12311;50.866;4.332;2023-08-24T15:25:06;22.70;99.90
24152;DHT22;12311;50.866;4.332;2023-08-24T15:27:32;22.90;99.90
24152;DHT22;12311;50.866;4.332;2023-08-24T15:29:57;23.00;99.90
24152;DHT22;12311;50.866;4.332;2023-08-24T15:32:23;23.10;99.90
24152;DHT22;12311;50.866;4.332;2023-08-24T15:34:49;23.10;99.90
24152;DHT22;12311;50.866;4.332;2023-08-24T15:37:15;23.50;99.90
24152;DHT22;12311;50.866;4.332;2023-08-24T15:39:41;23.70;99.90
24152;DHT22;12311;50.866;4.332;2023-08-24T15:42:07;24.10;99.90